Time;durP1;ratioP1;P1;durP2;ratioP2;P2;SDS_P1;SDS_P2;PMS_P1;PMS_P2;Temp;Humidity;BMP_temperature;BMP_pressure;BME280_temperature;BME280_humidity;BME280_pressure;Samples;Min_cycle;Max_cycle;Signal;HPM_P1;HPM_P2
2023/09/21 00:01:11;;;;;;;2.50;1.70;;;19.80;82.90;;;;;;5057353;28;20077;-77
2023/09/21 00:03:41;;;;;;;2.70;1.63;;;19.80;82.80;;;;;;5074766;28;20021;-77
2023/09/21 00:06:07;;;;;;;2.58;1.73;;;19.70;82.80;;;;;;5057841;28;20070;-77
2023/09/21 00:08:34;;;;;;;3.40;1.70;;;19.80;83.00;;;;;;5074585;28;20078;-76
2023/09/21 00:11:01;;;;;;;4.68;1.90;;;19.80;82.80;;;;;;5024232;28;20021;-77
2023/09/21 00:13:28;;;;;;;2.70;1.60;;;19.80;82.70;;;;;;5056815;28;20037;-77
2023/09/21 00:15:55;;;;;;;2.47;1.60;;;19.80;82.90;;;;;;5057105;28;20051;-76
2023/09/21 00:18:24;;;;;;;3.63;1.50;;;19.70;82.80;;;;;;5040527;28;20029;-76
2023/09/21 00:20:55;;;;;;;2.97;1.60;;;19.70;83.00;;;;;;5057404;28;20033;-77
2023/09/21 00:23:23;;;;;;;2.65;1.40;;;19.80;83.90;;;;;;5074485;28;20025;-76
2023/09/21 00:25:50;;;;;;;3.95;1.80;;;19.70;82.60;;;;;;5024179;28;20035;-76
2023/09/21 00:28:19;;;;;;;4.50;1.90;;;19.70;82.80;;;;;;5055832;28;20480;-77
2023/09/21 00:30:45;;;;;;;4.93;2.00;;;19.60;83.10;;;;;;5074244;28;20041;-77
2023/09/21 00:33:11;;;;;;;4.90;1.95;;;19.60;82.70;;;;;;5040234;28;20047;-76
2023/09/21 00:35:41;;;;;;;3.85;1.63;;;19.60;82.90;;;;;;5040026;28;20025;-77
2023/09/21 00:38:08;;;;;;;6.72;1.90;;;19.50;83.10;;;;;;5056446;28;20024;-77
2023/09/21 00:40:38;;;;;;;3.60;2.00;;;19.50;83.10;;;;;;5056422;28;20033;-77
2023/09/21 00:43:11;;;;;;;3.58;1.50;;;19.50;83.20;;;;;;5056597;28;20085;-78
2023/09/21 00:45:37;;;;;;;;;;;19.50;83.10;;;;;;5074425;28;20017;-78
2023/09/21 00:48:07;;;;;;;2.97;1.60;;;19.50;82.80;;;;;;5073824;28;19912;-77
2023/09/21 00:50:33;;;;;;;4.03;1.67;;;19.40;83.10;;;;;;5056217;28;20029;-77
2023/09/21 00:52:58;;;;;;;5.63;1.98;;;19.40;83.20;;;;;;5056411;28;20064;-77
2023/09/21 00:55:30;;;;;;;3.13;1.40;;;19.40;83.30;;;;;;5056243;28;20031;-77
2023/09/21 00:58:00;;;;;;;4.07;1.83;;;19.40;83.10;;;;;;5056145;28;20088;-77
2023/09/21 01:00:28;;;;;;;2.47;1.55;;;19.40;83.10;;;;;;5056331;28;20260;-77
2023/09/21 01:02:57;;;;;;;4.00;1.90;;;19.40;83.20;;;;;;5056280;28;20025;-77
2023/09/21 01:05:23;;;;;;;2.88;1.40;;;19.40;83.00;;;;;;5055997;28;20051;-77
2023/09/21 01:07:50;;;;;;;2.75;1.73;;;19.30;83.40;;;;;;5039459;28;20431;-77
2023/09/21 01:10:19;;;;;;;3.47;1.60;;;19.40;83.10;;;;;;5056069;28;20081;-77
2023/09/21 01:12:49;;;;;;;3.92;1.77;;;19.30;83.10;;;;;;5055970;28;20031;-77
2023/09/21 01:15:15;;;;;;;2.63;1.63;;;19.30;83.10;;;;;;5039850;28;20017;-76
2023/09/21 01:17:41;;;;;;;3.08;1.45;;;19.40;82.90;;;;;;5055777;28;20024;-77
2023/09/21 01:20:23;;;;;;;2.65;1.45;;;19.40;82.90;;;;;;5055751;28;20472;-77
2023/09/21 01:23:11;;;;;;;3.40;1.60;;;19.30;82.70;;;;;;5055795;28;20013;-77
2023/09/21 01:25:41;;;;;;;2.92;1.50;;;19.40;82.40;;;;;;5055712;28;20025;-77
2023/09/21 01:28:13;;;;;;;2.28;1.42;;;19.40;82.70;;;;;;5073285;28;20047;-77
2023/09/21 01:30:39;;;;;;;3.05;1.60;;;19.40;82.90;;;;;;5039806;28;20029;-77
2023/09/21 01:33:11;;;;;;;6.97;1.70;;;19.40;82.50;;;;;;5073183;28;20483;-77
2023/09/21 01:35:43;;;;;;;3.50;1.50;;;19.30;82.60;;;;;;5056486;28;20021;-77
2023/09/21 01:38:09;;;;;;;3.28;1.30;;;19.30;82.50;;;;;;5073242;28;20051;-77
2023/09/21 01:40:36;;;;;;;4.15;2.40;;;19.40;82.70;;;;;;5038978;28;20101;-77
2023/09/21 01:43:16;;;;;;;4.25;1.77;;;19.40;82.50;;;;;;5073140;28;20120;-77
2023/09/21 01:45:44;;;;;;;3.28;1.88;;;19.40;82.50;;;;;;5055187;28;20025;-77
2023/09/21 01:48:11;;;;;;;5.22;2.30;;;19.30;82.70;;;;;;5039230;28;20026;-77
2023/09/21 01:50:43;;;;;;;3.05;1.30;;;19.40;82.70;;;;;;5055463;28;20049;-77
2023/09/21 01:53:13;;;;;;;5.07;1.83;;;19.40;82.60;;;;;;5055427;28;20032;-77
2023/09/21 01:55:40;;;;;;;3.25;1.50;;;19.30;82.70;;;;;;5055382;28;20025;-76
2023/09/21 01:58:09;;;;;;;3.42;1.77;;;19.40;82.80;;;;;;5055352;28;20027;-77
2023/09/21 02:00:39;;;;;;;4.13;1.80;;;19.40;82.50;;;;;;5072963;28;20045;-76
2023/09/21 02:03:09;;;;;;;3.15;1.70;;;19.40;82.50;;;;;;5055535;28;20051;-77
2023/09/21 02:05:36;;;;;;;4.15;1.70;;;19.40;82.30;;;;;;5072973;28;20044;-77
2023/09/21 02:08:07;;;;;;;4.07;1.70;;;19.40;82.50;;;;;;5055116;28;20093;-77
2023/09/21 02:10:33;;;;;;;5.18;1.60;;;19.40;82.60;;;;;;5038752;28;20017;-77
2023/09/21 02:13:00;;;;;;;4.15;1.75;;;19.50;82.70;;;;;;5038814;28;20052;-76
2023/09/21 02:15:27;;;;;;;2.72;1.40;;;19.40;82.70;;;;;;5072818;28;20040;-77
2023/09/21 02:17:55;;;;;;;3.25;1.60;;;19.40;82.70;;;;;;5055177;28;20021;-77
2023/09/21 02:20:22;;;;;;;2.17;1.50;;;19.40;82.70;;;;;;5055585;28;20028;-76
2023/09/21 02:22:50;;;;;;;2.30;1.80;;;19.40;82.70;;;;;;5038763;28;20032;-77
2023/09/21 02:25:17;;;;;;;2.78;1.65;;;19.40;82.90;;;;;;5055175;28;20031;-77
2023/09/21 02:27:47;;;;;;;3.30;1.60;;;19.30;82.80;;;;;;5038605;28;20035;-77
2023/09/21 02:30:23;;;;;;;2.97;1.85;;;19.40;82.90;;;;;;5072607;28;20055;-77
2023/09/21 02:32:53;;;;;;;2.67;1.65;;;19.40;82.80;;;;;;5055015;28;20498;-77
2023/09/21 02:35:27;;;;;;;3.58;1.83;;;19.40;82.70;;;;;;5039022;28;20021;-76
2023/09/21 02:37:55;;;;;;;3.25;1.80;;;19.40;82.80;;;;;;5055016;28;20091;-77
2023/09/21 02:40:22;;;;;;;3.28;1.70;;;19.30;82.80;;;;;;5072568;28;20017;-77
2023/09/21 02:42:50;;;;;;;4.43;1.80;;;19.40;83.10;;;;;;5072624;28;20025;-77
2023/09/21 02:45:18;;;;;;;3.97;1.70;;;19.30;82.90;;;;;;5072480;28;20071;-78
2023/09/21 02:47:44;;;;;;;2.53;1.48;;;19.30;83.20;;;;;;5038133;28;20072;-77
2023/09/21 02:50:25;;;;;;;2.80;1.70;;;19.30;83.20;;;;;;5072479;28;20045;-77
2023/09/21 02:52:52;;;;;;;3.53;1.75;;;19.30;83.40;;;;;;5042984;28;20029;-77
2023/09/21 02:55:20;;;;;;;3.75;1.80;;;19.20;83.40;;;;;;5075979;28;20077;-77
2023/09/21 02:57:49;;;;;;;3.08;1.95;;;19.20;83.40;;;;;;5042097;28;20028;-77
2023/09/21 03:00:34;;;;;;;3.03;1.80;;;19.20;83.50;;;;;;5075940;28;20024;-77
2023/09/21 03:03:04;;;;;;;3.97;1.80;;;19.10;83.80;;;;;;5058298;28;20052;-78
2023/09/21 03:05:33;;;;;;;3.53;1.77;;;19.10;83.80;;;;;;5042656;28;20021;-77
2023/09/21 03:08:09;;;;;;;2.53;1.52;;;19.10;83.90;;;;;;5058140;28;20033;-77
2023/09/21 03:10:36;;;;;;;3.38;1.85;;;19.10;83.80;;;;;;5042931;28;20052;-78
2023/09/21 03:13:02;;;;;;;3.17;1.70;;;19.10;84.70;;;;;;5058114;28;20025;-77
2023/09/21 03:15:29;;;;;;;3.85;1.73;;;19.10;83.90;;;;;;5041746;28;20048;-77
2023/09/21 03:17:55;;;;;;;3.00;1.55;;;19.10;84.00;;;;;;5042050;28;20022;-77
2023/09/21 03:20:31;;;;;;;3.92;1.90;;;19.10;84.00;;;;;;5075588;28;20040;-76
2023/09/21 03:22:57;;;;;;;2.53;1.90;;;19.10;84.90;;;;;;5075627;28;20040;-77
2023/09/21 03:25:32;;;;;;;3.83;1.80;;;19.10;84.10;;;;;;5057863;28;20021;-77
2023/09/21 03:28:13;;;;;;;3.92;1.63;;;19.10;84.20;;;;;;5057811;28;20021;-77
2023/09/21 03:30:46;;;;;;;5.53;1.63;;;19.10;84.30;;;;;;5059896;28;20027;-77
2023/09/21 03:33:14;;;;;;;3.17;1.45;;;19.10;84.50;;;;;;5057667;28;20056;-77
2023/09/21 03:35:40;;;;;;;3.65;1.70;;;19.10;84.50;;;;;;5058115;28;20044;-77
2023/09/21 03:38:11;;;;;;;3.15;1.83;;;19.10;84.40;;;;;;5024681;28;20033;-76
2023/09/21 03:40:36;;;;;;;2.78;1.60;;;19.10;84.20;;;;;;5041745;28;20064;-77
2023/09/21 03:43:03;;;;;;;3.42;1.60;;;19.00;84.50;;;;;;5041029;28;20033;-77
2023/09/21 03:45:29;;;;;;;3.45;1.60;;;19.10;84.60;;;;;;5057458;28;20030;-77
2023/09/21 03:47:55;;;;;;;2.60;1.70;;;19.10;84.50;;;;;;5040640;28;20071;-76
2023/09/21 03:50:25;;;;;;;4.68;2.13;;;19.10;84.50;;;;;;5040870;28;20022;-77
2023/09/21 03:52:53;;;;;;;3.22;1.90;;;19.10;84.40;;;;;;5075077;28;20017;-77
2023/09/21 03:55:19;;;;;;;4.03;1.60;;;19.10;84.50;;;;;;5041103;28;20025;-77
2023/09/21 03:57:48;;;;;;;2.88;1.67;;;19.10;84.50;;;;;;5040812;28;20106;-76
2023/09/21 04:00:26;;;;;;;3.38;1.50;;;19.10;84.60;;;;;;5074896;28;20081;-77
2023/09/21 04:02:53;;;;;;;3.88;1.70;;;19.10;84.40;;;;;;5041527;28;20021;-77
2023/09/21 04:05:19;;;;;;;3.80;1.60;;;19.10;85.50;;;;;;5040420;28;20021;-76
2023/09/21 04:07:51;;;;;;;4.22;1.77;;;19.10;84.70;;;;;;5074616;28;20013;-77
2023/09/21 04:10:17;;;;;;;2.97;1.85;;;19.10;84.60;;;;;;5040874;28;20036;-77
2023/09/21 04:12:44;;;;;;;3.25;1.70;;;19.00;84.90;;;;;;5057109;28;20059;-77
2023/09/21 04:15:11;;;;;;;3.90;1.73;;;19.00;85.00;;;;;;5056884;28;20081;-77
2023/09/21 04:17:40;;;;;;;2.75;1.60;;;19.10;85.10;;;;;;5040585;28;20495;-77
2023/09/21 04:20:14;;;;;;;3.38;1.73;;;19.00;85.10;;;;;;5074479;28;20037;-78
2023/09/21 04:22:41;;;;;;;2.88;1.48;;;19.10;84.90;;;;;;5057624;28;20021;-77
2023/09/21 04:25:14;;;;;;;4.30;1.70;;;19.00;85.00;;;;;;5040228;28;20032;-77
2023/09/21 04:27:57;;;;;;;3.47;1.88;;;19.00;85.20;;;;;;5056681;28;20198;-77
2023/09/21 04:30:23;;;;;;;4.97;2.00;;;19.00;85.50;;;;;;5040211;28;20029;-77
2023/09/21 04:32:49;;;;;;;4.95;1.70;;;18.90;85.70;;;;;;5056695;28;20037;-77
2023/09/21 04:35:20;;;;;;;3.75;1.88;;;18.90;85.50;;;;;;5040057;28;20480;-77
2023/09/21 04:37:47;;;;;;;3.35;1.75;;;18.90;85.60;;;;;;5040622;28;20028;-77
2023/09/21 04:40:14;;;;;;;2.65;1.52;;;18.80;85.80;;;;;;5039881;28;20021;-77
2023/09/21 04:42:41;;;;;;;3.70;2.38;;;18.90;85.90;;;;;;5039959;28;20025;-77
2023/09/21 04:45:11;;;;;;;2.85;1.77;;;18.90;85.80;;;;;;5056335;28;20468;-77
2023/09/21 04:47:38;;;;;;;4.13;1.80;;;18.90;86.00;;;;;;5039662;28;20068;-77
2023/09/21 04:50:05;;;;;;;4.65;2.13;;;18.90;86.20;;;;;;5023361;28;20029;-77
2023/09/21 04:52:32;;;;;;;3.67;1.77;;;18.90;86.00;;;;;;5056170;28;20048;-77
2023/09/21 04:54:59;;;;;;;3.22;1.67;;;18.90;86.00;;;;;;5056601;28;20017;-77
2023/09/21 04:57:27;;;;;;;3.70;2.00;;;18.90;86.20;;;;;;5039808;28;20017;-77
2023/09/21 04:59:54;;;;;;;4.93;1.88;;;18.90;86.30;;;;;;5056132;28;20048;-76
2023/09/21 05:02:19;;;;;;;3.70;1.88;;;18.90;86.20;;;;;;5056061;28;20422;-76
2023/09/21 05:04:45;;;;;;;3.67;1.80;;;18.90;86.30;;;;;;5039426;28;20037;-76
2023/09/21 05:07:13;;;;;;;2.03;1.60;;;18.90;86.30;;;;;;5039562;28;20033;-77
2023/09/21 05:09:42;;;;;;;3.25;1.65;;;19.00;86.40;;;;;;5056342;28;20024;-77
2023/09/21 05:12:07;;;;;;;3.90;1.98;;;19.00;86.30;;;;;;5073472;28;20048;-77
2023/09/21 05:14:33;;;;;;;3.83;2.08;;;19.00;86.10;;;;;;5022755;28;20025;-77
2023/09/21 05:16:59;;;;;;;7.05;1.92;;;19.10;86.20;;;;;;5022953;28;20064;-77
2023/09/21 05:19:26;;;;;;;6.03;2.00;;;19.00;87.00;;;;;;5039382;28;20032;-77
2023/09/21 05:21:56;;;;;;;2.72;1.63;;;19.10;86.20;;;;;;5023061;28;20025;-77
2023/09/21 05:24:25;;;;;;;4.53;1.95;;;19.00;86.20;;;;;;5039914;28;20040;-77
2023/09/21 05:26:52;;;;;;;4.32;2.00;;;19.10;86.40;;;;;;5055674;28;20036;-77
2023/09/21 05:29:19;;;;;;;3.28;1.85;;;19.00;86.40;;;;;;5055847;28;20028;-77
2023/09/21 05:31:45;;;;;;;3.05;1.80;;;19.10;86.40;;;;;;5022953;28;20040;-77
2023/09/21 05:34:10;;;;;;;3.67;1.90;;;19.10;86.50;;;;;;5039111;28;20040;-77
2023/09/21 05:36:36;;;;;;;3.35;1.83;;;19.00;87.30;;;;;;5055758;28;20025;-77
2023/09/21 05:39:04;;;;;;;3.22;2.13;;;19.00;86.70;;;;;;5055534;28;20044;-77
2023/09/21 05:41:31;;;;;;;3.70;1.85;;;19.00;86.70;;;;;;5073184;28;20036;-77
2023/09/21 05:43:57;;;;;;;3.15;2.00;;;19.00;86.80;;;;;;5055351;28;20029;-78
2023/09/21 05:46:23;;;;;;;4.90;1.90;;;19.00;87.10;;;;;;5055256;28;20048;-77
2023/09/21 05:48:48;;;;;;;4.95;2.47;;;19.00;87.00;;;;;;5073025;28;20033;-77
2023/09/21 05:51:14;;;;;;;4.70;1.90;;;19.00;87.10;;;;;;5073044;28;20033;-77
2023/09/21 05:53:40;;;;;;;3.47;1.98;;;19.00;87.10;;;;;;5039100;28;20081;-76
2023/09/21 05:56:05;;;;;;;4.53;1.98;;;19.00;87.10;;;;;;5038889;28;20080;-77
2023/09/21 05:58:31;;;;;;;3.03;1.92;;;19.00;87.10;;;;;;5038791;28;20044;-78
2023/09/21 06:00:59;;;;;;;3.10;2.08;;;19.00;87.10;;;;;;5038737;28;20025;-77
2023/09/21 06:03:26;;;;;;;6.45;2.30;;;19.00;87.30;;;;;;5039619;28;20025;-77
2023/09/21 06:05:52;;;;;;;4.47;2.28;;;19.00;87.10;;;;;;5039164;28;20029;-77
2023/09/21 06:08:19;;;;;;;3.95;1.98;;;19.00;87.30;;;;;;5022462;28;20100;-77
2023/09/21 06:10:45;;;;;;;4.78;2.20;;;19.00;87.60;;;;;;5055535;28;20425;-77
2023/09/21 06:13:12;;;;;;;3.13;2.00;;;19.00;87.50;;;;;;5072872;28;20036;-77
2023/09/21 06:15:46;;;;;;;3.03;2.13;;;19.00;87.60;;;;;;5055381;28;20032;-78
2023/09/21 06:18:14;;;;;;;5.20;2.33;;;18.90;87.80;;;;;;5023746;28;20025;-77
2023/09/21 06:20:41;;;;;;;3.13;2.20;;;19.00;87.80;;;;;;5022811;28;20120;-77
2023/09/21 06:23:07;;;;;;;5.32;2.17;;;18.90;88.10;;;;;;5055220;28;20048;-77
2023/09/21 06:25:34;;;;;;;3.90;2.10;;;18.90;88.30;;;;;;5072796;28;20017;-77
2023/09/21 06:28:00;;;;;;;6.45;2.33;;;18.90;88.70;;;;;;5041655;28;20097;-77
2023/09/21 06:30:26;;;;;;;5.60;2.50;;;18.90;88.70;;;;;;5042367;28;20032;-77
2023/09/21 06:32:55;;;;;;;3.83;2.45;;;18.90;88.80;;;;;;5042342;28;20096;-77
2023/09/21 06:35:23;;;;;;;4.10;2.30;;;18.90;88.80;;;;;;5058526;28;20024;-77
2023/09/21 06:37:54;;;;;;;3.85;2.20;;;18.90;89.10;;;;;;5059256;28;20049;-77
2023/09/21 06:40:24;;;;;;;3.53;2.30;;;18.90;89.30;;;;;;5076427;28;20025;-77
2023/09/21 06:42:50;;;;;;;2.85;1.95;;;18.90;89.50;;;;;;5026068;28;20028;-77
2023/09/21 06:45:16;;;;;;;6.78;2.20;;;18.90;89.60;;;;;;5058750;28;20025;-77
2023/09/21 06:47:42;;;;;;;4.18;2.58;;;18.80;90.40;;;;;;5058515;28;20041;-76
2023/09/21 06:50:10;;;;;;;4.32;2.47;;;18.80;90.20;;;;;;5076196;28;20055;-76
2023/09/21 06:52:39;;;;;;;3.78;2.35;;;18.90;90.30;;;;;;5058470;28;20021;-76
2023/09/21 06:55:05;;;;;;;3.67;2.28;;;18.90;90.50;;;;;;5058327;28;20051;-77
2023/09/21 06:57:31;;;;;;;5.57;2.45;;;18.90;90.70;;;;;;5041939;28;20021;-77
2023/09/21 06:59:57;;;;;;;3.95;2.00;;;18.80;90.80;;;;;;5076100;28;20080;-76
2023/09/21 07:02:26;;;;;;;4.72;2.50;;;18.80;90.90;;;;;;5058281;28;20032;-77
2023/09/21 07:04:53;;;;;;;4.85;2.35;;;18.80;91.20;;;;;;5058252;28;20025;-76
2023/09/21 07:07:18;;;;;;;5.20;2.53;;;18.80;91.30;;;;;;5058201;28;20419;-76
2023/09/21 07:09:47;;;;;;;5.38;2.58;;;18.70;91.80;;;;;;5058078;28;20049;-77
2023/09/21 07:12:13;;;;;;;4.88;2.58;;;18.70;91.70;;;;;;5058722;28;20032;-76
2023/09/21 07:14:39;;;;;;;5.32;2.80;;;18.70;91.80;;;;;;5058265;28;20419;-76
2023/09/21 07:17:05;;;;;;;4.53;2.45;;;18.70;91.90;;;;;;5041567;28;20025;-76
2023/09/21 07:19:31;;;;;;;4.78;2.65;;;18.80;91.80;;;;;;5057930;28;20025;-76
2023/09/21 07:21:57;;;;;;;4.55;2.40;;;18.70;91.90;;;;;;5058034;28;20033;-77
2023/09/21 07:24:23;;;;;;;4.95;2.90;;;18.70;92.10;;;;;;5057957;28;20056;-76
2023/09/21 07:26:49;;;;;;;5.55;2.58;;;18.70;92.10;;;;;;5057935;28;20041;-75
2023/09/21 07:29:15;;;;;;;8.07;3.03;;;18.80;92.10;;;;;;5058112;28;20037;-77
2023/09/21 07:31:41;;;;;;;9.63;3.10;;;18.80;92.10;;;;;;5057779;28;20089;-76
2023/09/21 07:34:06;;;;;;;6.05;3.10;;;18.80;92.20;;;;;;5041139;28;20021;-77
2023/09/21 07:36:35;;;;;;;4.82;3.00;;;18.90;92.20;;;;;;5041253;28;20029;-76
2023/09/21 07:39:03;;;;;;;6.03;3.33;;;18.90;92.30;;;;;;5075124;28;20028;-77
2023/09/21 07:41:29;;;;;;;6.07;3.00;;;18.90;92.40;;;;;;5057942;28;20021;-77
2023/09/21 07:43:55;;;;;;;4.57;3.13;;;18.90;92.30;;;;;;5041142;28;20049;-76
2023/09/21 07:46:20;;;;;;;4.15;2.53;;;18.90;92.40;;;;;;5057382;28;20056;-76
2023/09/21 07:48:49;;;;;;;5.20;3.00;;;18.90;92.50;;;;;;5057521;28;20073;-76
2023/09/21 07:51:16;;;;;;;7.00;3.60;;;18.80;92.60;;;;;;5075123;28;20072;-76
2023/09/21 07:53:43;;;;;;;5.53;3.03;;;18.90;92.90;;;;;;5075058;28;20048;-76
2023/09/21 07:56:12;;;;;;;4.65;2.92;;;18.80;92.80;;;;;;5074971;28;20025;-76
2023/09/21 07:58:38;;;;;;;5.68;3.25;;;18.80;92.80;;;;;;5074920;28;20053;-76
2023/09/21 08:01:04;;;;;;;3.70;2.60;;;18.80;93.00;;;;;;5040672;28;20063;-77
2023/09/21 08:03:29;;;;;;;6.20;3.00;;;18.80;93.20;;;;;;5040602;28;20029;-77
2023/09/21 08:06:01;;;;;;;5.25;3.00;;;18.70;93.60;;;;;;5040769;28;20036;-76
2023/09/21 08:08:27;;;;;;;4.65;2.67;;;18.60;93.90;;;;;;5074838;28;20029;-77
2023/09/21 08:10:53;;;;;;;5.72;3.50;;;18.60;94.10;;;;;;5057081;28;20025;-77
2023/09/21 08:13:25;;;;;;;6.22;3.08;;;18.50;94.30;;;;;;5057002;28;20189;-77
2023/09/21 08:15:52;;;;;;;5.43;3.25;;;18.50;94.30;;;;;;5074732;28;20025;-76
2023/09/21 08:18:18;;;;;;;8.07;3.35;;;18.50;94.40;;;;;;5074575;28;20025;-77
2023/09/21 08:20:44;;;;;;;7.65;2.90;;;18.50;94.70;;;;;;5074485;28;20027;-77
2023/09/21 08:23:09;;;;;;;7.07;3.40;;;18.50;95.20;;;;;;5056746;28;20040;-77
2023/09/21 08:25:37;;;;;;;5.70;3.45;;;18.40;95.30;;;;;;5040323;28;20048;-77
2023/09/21 08:28:04;;;;;;;6.85;3.15;;;18.40;95.30;;;;;;5074244;28;20025;-77
2023/09/21 08:30:32;;;;;;;6.43;3.10;;;18.40;95.60;;;;;;5056654;28;20029;-76
2023/09/21 08:32:58;;;;;;;5.32;3.17;;;18.40;95.50;;;;;;5074377;28;20017;-77
2023/09/21 08:35:25;;;;;;;5.13;2.85;;;18.40;95.60;;;;;;5056484;28;20025;-76
2023/09/21 08:37:50;;;;;;;7.95;3.40;;;18.40;95.70;;;;;;5039985;28;20040;-76
2023/09/21 08:40:17;;;;;;;6.13;3.22;;;18.50;95.90;;;;;;5056552;28;20029;-77
2023/09/21 08:42:44;;;;;;;5.97;2.97;;;18.50;96.00;;;;;;5074077;28;20085;-77
2023/09/21 08:45:11;;;;;;;5.40;3.00;;;18.40;96.00;;;;;;5056372;28;20100;-77
2023/09/21 08:47:40;;;;;;;5.22;2.83;;;18.50;96.00;;;;;;5056544;28;20041;-76
2023/09/21 08:50:09;;;;;;;4.95;3.17;;;18.50;96.20;;;;;;5055600;28;20033;-77
2023/09/21 08:52:36;;;;;;;5.65;3.00;;;18.50;96.20;;;;;;5056891;28;20025;-77
2023/09/21 08:55:02;;;;;;;5.82;3.10;;;18.50;96.10;;;;;;5073861;28;20017;-77
2023/09/21 08:57:28;;;;;;;6.55;3.30;;;18.60;96.00;;;;;;5073797;28;20072;-77
2023/09/21 09:00:06;;;;;;;5.45;3.10;;;18.60;96.50;;;;;;5056184;28;20021;-77
2023/09/21 09:02:35;;;;;;;7.57;3.50;;;18.70;96.00;;;;;;5073781;28;20037;-76
2023/09/21 09:05:06;;;;;;;6.07;3.65;;;18.70;95.90;;;;;;5056626;28;20025;-77
2023/09/21 09:07:37;;;;;;;5.60;3.15;;;18.80;95.90;;;;;;5073681;28;20048;-77
2023/09/21 09:10:04;;;;;;;5.13;3.78;;;18.80;96.30;;;;;;5055929;28;20033;-77
2023/09/21 09:12:30;;;;;;;5.88;3.33;;;18.80;95.90;;;;;;5055831;28;20024;-77
2023/09/21 09:14:57;;;;;;;5.50;3.47;;;18.90;95.80;;;;;;5039449;28;20093;-77
2023/09/21 09:17:35;;;;;;;5.47;3.55;;;18.90;95.70;;;;;;5056196;28;20499;-77
2023/09/21 09:20:03;;;;;;;6.78;3.33;;;19.00;95.70;;;;;;5067089;28;20021;-77
2023/09/21 09:22:33;;;;;;;6.80;3.72;;;19.00;95.60;;;;;;5039667;28;20025;-77
2023/09/21 09:25:06;;;;;;;7.55;3.88;;;19.00;95.60;;;;;;5055766;28;20017;-77
2023/09/21 09:27:35;;;;;;;7.22;4.03;;;19.10;95.60;;;;;;5055612;28;20055;-77
2023/09/21 09:30:04;;;;;;;8.88;4.40;;;19.10;95.60;;;;;;5055637;28;20032;-78
2023/09/21 09:32:41;;;;;;;6.32;4.07;;;19.20;95.80;;;;;;5055579;28;20028;-77
2023/09/21 09:35:13;;;;;;;9.57;5.20;;;19.20;95.80;;;;;;5055577;28;20028;-77
2023/09/21 09:37:43;;;;;;;7.05;4.60;;;19.30;95.80;;;;;;5055640;28;20024;-77
2023/09/21 09:40:18;;;;;;;8.05;5.03;;;19.30;95.80;;;;;;5073250;28;20029;-77
2023/09/21 09:42:44;;;;;;;10.50;5.18;;;19.30;95.90;;;;;;5056755;28;20029;-77
2023/09/21 09:45:28;;;;;;;7.80;5.18;;;19.30;96.00;;;;;;5073098;28;20029;-77
2023/09/21 09:47:56;;;;;;;7.63;4.53;;;19.30;96.30;;;;;;5055219;28;20403;-77
2023/09/21 09:50:24;;;;;;;8.50;4.57;;;19.30;95.90;;;;;;5055442;28;20017;-77
2023/09/21 09:53:13;;;;;;;7.68;4.78;;;19.30;95.80;;;;;;5073071;28;20017;-78
2023/09/21 09:55:43;;;;;;;7.65;5.03;;;19.40;95.70;;;;;;5073221;28;20014;-77
2023/09/21 09:58:09;;;;;;;8.27;5.93;;;19.40;95.80;;;;;;5055474;28;20028;-77
2023/09/21 10:00:37;;;;;;;7.38;5.15;;;19.40;95.90;;;;;;5056103;28;20058;-77
2023/09/21 10:03:08;;;;;;;8.13;4.95;;;19.40;95.90;;;;;;5059448;28;20045;-77
2023/09/21 10:05:38;;;;;;;7.28;4.57;;;19.40;95.90;;;;;;5077072;28;20014;-77
2023/09/21 10:08:07;;;;;;;8.95;5.18;;;19.40;95.90;;;;;;5059276;28;20021;-78
2023/09/21 10:10:44;;;;;;;8.60;5.22;;;19.40;96.10;;;;;;5042937;28;20029;-77
2023/09/21 10:13:11;;;;;;;15.00;5.35;;;19.50;96.00;;;;;;5059348;28;20055;-78
2023/09/21 10:15:37;;;;;;;8.35;5.07;;;19.50;96.00;;;;;;5076921;28;20017;-77
2023/09/21 10:18:04;;;;;;;9.80;4.90;;;19.50;96.10;;;;;;5042754;28;20021;-78
2023/09/21 10:20:33;;;;;;;8.13;4.80;;;19.50;96.10;;;;;;5042759;28;20040;-77
2023/09/21 10:23:09;;;;;;;5.60;4.20;;;19.60;96.10;;;;;;5059550;28;20060;-77
2023/09/21 10:25:37;;;;;;;9.57;4.85;;;19.60;96.10;;;;;;5059091;28;20100;-77
2023/09/21 10:28:28;;;;;;;7.07;4.70;;;19.50;96.30;;;;;;5042439;28;20025;-77
2023/09/21 10:30:54;;;;;;;9.10;4.97;;;19.50;96.20;;;;;;5076553;28;20025;-77
2023/09/21 10:33:20;;;;;;;7.28;4.82;;;19.50;96.50;;;;;;5058793;28;20092;-76
2023/09/21 10:35:46;;;;;;;7.13;4.43;;;19.50;96.50;;;;;;5058731;28;20017;-78
2023/09/21 10:38:17;;;;;;;7.05;4.65;;;19.60;96.60;;;;;;5058952;28;20021;-78
2023/09/21 10:40:43;;;;;;;5.85;4.35;;;19.60;96.50;;;;;;5058796;28;20085;-77
2023/09/21 10:43:36;;;;;;;8.57;4.78;;;19.60;96.70;;;;;;5058698;28;20021;-77
2023/09/21 10:46:03;;;;;;;7.53;4.20;;;19.70;96.60;;;;;;5058471;28;20047;-77
2023/09/21 10:48:30;;;;;;;6.30;4.30;;;19.80;96.80;;;;;;5058700;28;20124;-78
2023/09/21 10:50:56;;;;;;;6.22;4.53;;;19.80;96.60;;;;;;5042513;28;20036;-78
2023/09/21 10:53:23;;;;;;;6.93;4.30;;;19.90;96.50;;;;;;5076103;28;20072;-78
2023/09/21 10:55:49;;;;;;;6.95;4.50;;;19.90;96.50;;;;;;5058442;28;20044;-77
2023/09/21 10:58:17;;;;;;;8.98;4.38;;;19.90;96.50;;;;;;5041860;28;20029;-78
2023/09/21 11:00:43;;;;;;;8.68;3.88;;;19.90;96.50;;;;;;5058268;28;20029;-77
2023/09/21 11:03:11;;;;;;;6.40;4.28;;;19.90;96.40;;;;;;5025482;28;20029;-77
2023/09/21 11:05:38;;;;;;;7.63;3.78;;;20.00;96.30;;;;;;5041943;28;20021;-77
2023/09/21 11:08:03;;;;;;;5.70;4.10;;;20.00;96.30;;;;;;5058364;28;20051;-78
2023/09/21 11:10:31;;;;;;;7.13;4.03;;;20.00;96.30;;;;;;5058319;28;20275;-78
2023/09/21 11:12:57;;;;;;;5.80;3.88;;;20.10;96.40;;;;;;5057525;28;20041;-77
2023/09/21 11:15:23;;;;;;;6.80;3.58;;;20.00;96.70;;;;;;5075734;28;20048;-77
2023/09/21 11:17:49;;;;;;;5.53;3.25;;;20.00;96.40;;;;;;5041530;28;20025;-78
2023/09/21 11:20:18;;;;;;;6.28;3.30;;;20.00;96.30;;;;;;5041426;28;20494;-78
2023/09/21 11:22:45;;;;;;;7.63;3.42;;;19.90;96.00;;;;;;5058635;28;20032;-77
2023/09/21 11:25:14;;;;;;;6.03;3.20;;;20.00;96.30;;;;;;5041406;28;20105;-77
2023/09/21 11:27:41;;;;;;;7.53;3.45;;;20.00;96.10;;;;;;5041655;28;20056;-77
2023/09/21 11:30:10;;;;;;;4.63;3.40;;;19.90;96.00;;;;;;5058034;28;20480;-77
2023/09/21 11:32:46;;;;;;;5.20;2.60;;;19.90;95.90;;;;;;5041444;28;20021;-78
2023/09/21 11:35:14;;;;;;;4.55;3.05;;;19.90;95.80;;;;;;5057721;28;20051;-78
2023/09/21 11:37:41;;;;;;;6.10;2.88;;;19.90;95.80;;;;;;5057802;28;20021;-78
2023/09/21 11:40:12;;;;;;;5.38;2.83;;;19.90;95.70;;;;;;5041168;28;20025;-78
2023/09/21 11:42:45;;;;;;;3.73;2.50;;;19.90;95.50;;;;;;5057672;28;20025;-78
2023/09/21 11:45:24;;;;;;;4.38;2.20;;;19.90;95.50;;;;;;5057523;28;20029;-78
2023/09/21 11:47:52;;;;;;;5.13;2.67;;;19.90;95.40;;;;;;5041173;28;20041;-78
2023/09/21 11:50:21;;;;;;;2.92;2.28;;;19.90;95.30;;;;;;5057351;28;20029;-78
2023/09/21 11:52:56;;;;;;;5.10;2.17;;;19.90;95.20;;;;;;5058153;28;20028;-79
2023/09/21 11:55:26;;;;;;;4.93;2.40;;;19.90;94.90;;;;;;5057419;28;20044;-77
2023/09/21 11:57:53;;;;;;;3.90;2.28;;;19.90;94.90;;;;;;5057292;28;20020;-79
2023/09/21 12:00:38;;;;;;;4.15;2.17;;;19.90;94.80;;;;;;5057485;28;20021;-78
2023/09/21 12:03:04;;;;;;;2.92;1.80;;;20.00;94.70;;;;;;5043550;28;20092;-77
2023/09/21 12:05:31;;;;;;;2.95;1.65;;;20.00;94.30;;;;;;5040689;28;20083;-78
2023/09/21 12:07:57;;;;;;;2.10;1.60;;;20.00;94.10;;;;;;5040971;28;20052;-78
2023/09/21 12:10:23;;;;;;;3.90;1.55;;;20.00;94.10;;;;;;5056988;28;20040;-78
2023/09/21 12:12:50;;;;;;;9.57;2.10;;;20.00;93.50;;;;;;5057011;28;20040;-77
2023/09/21 12:15:17;;;;;;;3.25;1.48;;;20.00;93.70;;;;;;5057215;28;20017;-77
2023/09/21 12:17:44;;;;;;;3.50;1.58;;;20.00;93.60;;;;;;5057373;28;20017;-78
2023/09/21 12:20:11;;;;;;;2.38;1.38;;;20.10;93.70;;;;;;5074530;28;20025;-77
2023/09/21 12:22:38;;;;;;;1.92;1.40;;;20.10;93.60;;;;;;5040576;28;20021;-77
2023/09/21 12:25:05;;;;;;;5.03;2.17;;;20.10;93.50;;;;;;5055798;28;20025;-78
2023/09/21 12:27:32;;;;;;;4.28;2.40;;;20.10;93.20;;;;;;5057096;28;20018;-77
2023/09/21 12:29:58;;;;;;;3.70;2.80;;;20.10;93.30;;;;;;5056636;28;20032;-77
2023/09/21 12:32:24;;;;;;;5.80;2.63;;;20.00;93.20;;;;;;5056782;28;20017;-79
2023/09/21 12:34:51;;;;;;;5.40;2.70;;;20.00;93.10;;;;;;5040182;28;20021;-79
2023/09/21 12:37:18;;;;;;;5.13;2.97;;;19.90;92.90;;;;;;5056696;28;20423;-78
2023/09/21 12:39:43;;;;;;;3.85;2.38;;;19.80;93.10;;;;;;5040198;28;20028;-78
2023/09/21 12:42:12;;;;;;;5.43;2.42;;;19.70;93.10;;;;;;5040048;28;20021;-76
2023/09/21 12:44:38;;;;;;;5.63;2.30;;;19.70;93.10;;;;;;5056723;28;20083;-78
2023/09/21 12:47:04;;;;;;;5.10;2.33;;;19.60;93.20;;;;;;5056282;28;20052;-80
2023/09/21 12:49:30;;;;;;;3.70;2.40;;;19.50;93.30;;;;;;5056634;28;20029;-78
2023/09/21 12:51:55;;;;;;;2.63;2.00;;;19.50;93.50;;;;;;5039823;28;20053;-78
2023/09/21 12:54:21;;;;;;;2.78;1.90;;;19.40;93.60;;;;;;5039720;28;20041;-78